sensor_id;sensor_type;location;lat;lon;timestamp;P1;durP1;ratioP1;P2;durP2;ratioP2
10811;SDS011;5458;51.496;7.334;2023-04-25T00:02:03;12.10;;;5.72;;
10811;SDS011;5458;51.496;7.334;2023-04-25T00:04:28;10.38;;;5.78;;
10811;SDS011;5458;51.496;7.334;2023-04-25T00:06:54;12.80;;;6.05;;
10811;SDS011;5458;51.496;7.334;2023-04-25T00:09:20;12.13;;;6.90;;
10811;SDS011;5458;51.496;7.334;2023-04-25T00:11:47;11.88;;;6.53;;
10811;SDS011;5458;51.496;7.334;2023-04-25T00:14:13;12.88;;;5.65;;
10811;SDS011;5458;51.496;7.334;2023-04-25T00:16:39;13.55;;;6.00;;
10811;SDS011;5458;51.496;7.334;2023-04-25T00:19:06;11.23;;;6.03;;
10811;SDS011;5458;51.496;7.334;2023-04-25T00:21:32;13.32;;;6.80;;
10811;SDS011;5458;51.496;7.334;2023-04-25T00:23:58;13.68;;;6.78;;
10811;SDS011;5458;51.496;7.334;2023-04-25T00:26:24;13.35;;;5.95;;
10811;SDS011;5458;51.496;7.334;2023-04-25T00:28:50;10.57;;;5.57;;
10811;SDS011;5458;51.496;7.334;2023-04-25T00:31:16;10.50;;;6.35;;
10811;SDS011;5458;51.496;7.334;2023-04-25T00:33:42;11.27;;;7.15;;
10811;SDS011;5458;51.496;7.334;2023-04-25T00:36:09;9.57;;;7.05;;
10811;SDS011;5458;51.496;7.334;2023-04-25T00:38:34;10.27;;;6.90;;
10811;SDS011;5458;51.496;7.334;2023-04-25T00:41:00;10.70;;;6.22;;
10811;SDS011;5458;51.496;7.334;2023-04-25T00:43:26;12.70;;;7.05;;
10811;SDS011;5458;51.496;7.334;2023-04-25T00:45:52;13.40;;;7.70;;
10811;SDS011;5458;51.496;7.334;2023-04-25T00:48:20;13.02;;;7.50;;
10811;SDS011;5458;51.496;7.334;2023-04-25T00:50:50;9.75;;;6.45;;
10811;SDS011;5458;51.496;7.334;2023-04-25T00:53:19;14.18;;;6.18;;
10811;SDS011;5458;51.496;7.334;2023-04-25T00:55:49;8.23;;;6.20;;
10811;SDS011;5458;51.496;7.334;2023-04-25T00:58:16;11.75;;;7.22;;
10811;SDS011;5458;51.496;7.334;2023-04-25T01:00:43;11.38;;;6.63;;
10811;SDS011;5458;51.496;7.334;2023-04-25T01:03:10;8.07;;;5.88;;
10811;SDS011;5458;51.496;7.334;2023-04-25T01:05:36;10.32;;;6.78;;
10811;SDS011;5458;51.496;7.334;2023-04-25T01:08:02;8.70;;;6.53;;
10811;SDS011;5458;51.496;7.334;2023-04-25T01:10:28;8.00;;;5.78;;
10811;SDS011;5458;51.496;7.334;2023-04-25T01:12:53;9.73;;;6.07;;
10811;SDS011;5458;51.496;7.334;2023-04-25T01:15:19;9.68;;;6.35;;
10811;SDS011;5458;51.496;7.334;2023-04-25T01:17:45;9.55;;;6.25;;
10811;SDS011;5458;51.496;7.334;2023-04-25T01:20:11;11.52;;;6.45;;
10811;SDS011;5458;51.496;7.334;2023-04-25T01:22:38;8.23;;;5.90;;
10811;SDS011;5458;51.496;7.334;2023-04-25T01:25:04;10.30;;;6.95;;
10811;SDS011;5458;51.496;7.334;2023-04-25T01:27:32;9.85;;;7.55;;
10811;SDS011;5458;51.496;7.334;2023-04-25T01:29:57;11.00;;;6.03;;
10811;SDS011;5458;51.496;7.334;2023-04-25T01:32:24;10.13;;;6.00;;
10811;SDS011;5458;51.496;7.334;2023-04-25T01:34:51;8.88;;;6.40;;
10811;SDS011;5458;51.496;7.334;2023-04-25T01:37:17;7.53;;;5.95;;
10811;SDS011;5458;51.496;7.334;2023-04-25T01:39:42;8.15;;;6.50;;
10811;SDS011;5458;51.496;7.334;2023-04-25T01:42:09;13.07;;;6.68;;
10811;SDS011;5458;51.496;7.334;2023-04-25T01:44:34;8.98;;;6.40;;
10811;SDS011;5458;51.496;7.334;2023-04-25T01:47:00;12.93;;;8.02;;
10811;SDS011;5458;51.496;7.334;2023-04-25T01:49:26;15.25;;;7.93;;
10811;SDS011;5458;51.496;7.334;2023-04-25T01:51:51;14.98;;;7.75;;
10811;SDS011;5458;51.496;7.334;2023-04-25T01:54:17;11.32;;;7.97;;
10811;SDS011;5458;51.496;7.334;2023-04-25T01:56:49;12.23;;;7.72;;
10811;SDS011;5458;51.496;7.334;2023-04-25T01:59:16;12.65;;;8.15;;
10811;SDS011;5458;51.496;7.334;2023-04-25T02:01:43;11.65;;;7.80;;
10811;SDS011;5458;51.496;7.334;2023-04-25T02:04:08;12.63;;;7.32;;
10811;SDS011;5458;51.496;7.334;2023-04-25T02:06:34;11.63;;;7.45;;
10811;SDS011;5458;51.496;7.334;2023-04-25T02:08:59;12.90;;;6.93;;
10811;SDS011;5458;51.496;7.334;2023-04-25T02:11:25;10.98;;;7.65;;
10811;SDS011;5458;51.496;7.334;2023-04-25T02:13:51;10.73;;;7.55;;
10811;SDS011;5458;51.496;7.334;2023-04-25T02:16:17;14.60;;;8.35;;
10811;SDS011;5458;51.496;7.334;2023-04-25T02:18:43;13.23;;;8.77;;
10811;SDS011;5458;51.496;7.334;2023-04-25T02:21:10;14.15;;;8.48;;
10811;SDS011;5458;51.496;7.334;2023-04-25T02:23:36;13.30;;;9.18;;
10811;SDS011;5458;51.496;7.334;2023-04-25T02:26:02;11.35;;;8.02;;
10811;SDS011;5458;51.496;7.334;2023-04-25T02:28:28;18.95;;;10.13;;
10811;SDS011;5458;51.496;7.334;2023-04-25T02:30:54;14.98;;;8.52;;
10811;SDS011;5458;51.496;7.334;2023-04-25T02:33:19;16.48;;;10.45;;
10811;SDS011;5458;51.496;7.334;2023-04-25T02:35:46;13.63;;;10.25;;
10811;SDS011;5458;51.496;7.334;2023-04-25T02:38:11;12.18;;;9.63;;
10811;SDS011;5458;51.496;7.334;2023-04-25T02:40:37;13.10;;;9.32;;
10811;SDS011;5458;51.496;7.334;2023-04-25T02:43:03;15.57;;;9.05;;
10811;SDS011;5458;51.496;7.334;2023-04-25T02:45:28;16.05;;;8.70;;
10811;SDS011;5458;51.496;7.334;2023-04-25T02:47:54;13.60;;;9.00;;
10811;SDS011;5458;51.496;7.334;2023-04-25T02:50:19;15.60;;;8.45;;
10811;SDS011;5458;51.496;7.334;2023-04-25T02:52:45;11.57;;;9.30;;
10811;SDS011;5458;51.496;7.334;2023-04-25T02:55:11;12.70;;;8.45;;
10811;SDS011;5458;51.496;7.334;2023-04-25T02:57:38;12.65;;;8.25;;
10811;SDS011;5458;51.496;7.334;2023-04-25T03:00:03;13.00;;;9.05;;
10811;SDS011;5458;51.496;7.334;2023-04-25T03:02:30;11.52;;;8.05;;
10811;SDS011;5458;51.496;7.334;2023-04-25T03:04:56;13.00;;;8.10;;
10811;SDS011;5458;51.496;7.334;2023-04-25T03:07:21;13.57;;;8.43;;
10811;SDS011;5458;51.496;7.334;2023-04-25T03:09:47;11.20;;;8.30;;
10811;SDS011;5458;51.496;7.334;2023-04-25T03:12:12;10.55;;;8.00;;
10811;SDS011;5458;51.496;7.334;2023-04-25T03:14:38;11.35;;;7.95;;
10811;SDS011;5458;51.496;7.334;2023-04-25T03:17:04;13.20;;;8.00;;
10811;SDS011;5458;51.496;7.334;2023-04-25T03:19:29;10.05;;;6.93;;
10811;SDS011;5458;51.496;7.334;2023-04-25T03:21:55;10.52;;;7.90;;
10811;SDS011;5458;51.496;7.334;2023-04-25T03:24:21;12.48;;;9.07;;
10811;SDS011;5458;51.496;7.334;2023-04-25T03:26:47;11.23;;;7.93;;
10811;SDS011;5458;51.496;7.334;2023-04-25T03:29:12;14.35;;;8.32;;
10811;SDS011;5458;51.496;7.334;2023-04-25T03:31:38;13.65;;;8.07;;
10811;SDS011;5458;51.496;7.334;2023-04-25T03:34:03;12.68;;;7.93;;
10811;SDS011;5458;51.496;7.334;2023-04-25T03:36:29;12.63;;;7.80;;
10811;SDS011;5458;51.496;7.334;2023-04-25T03:38:55;17.63;;;8.48;;
10811;SDS011;5458;51.496;7.334;2023-04-25T03:41:21;14.75;;;8.23;;
10811;SDS011;5458;51.496;7.334;2023-04-25T03:43:46;13.65;;;8.18;;
10811;SDS011;5458;51.496;7.334;2023-04-25T03:46:12;12.10;;;8.27;;
10811;SDS011;5458;51.496;7.334;2023-04-25T03:48:37;18.50;;;8.55;;
10811;SDS011;5458;51.496;7.334;2023-04-25T03:51:03;11.07;;;7.65;;
10811;SDS011;5458;51.496;7.334;2023-04-25T03:53:29;11.88;;;8.00;;
10811;SDS011;5458;51.496;7.334;2023-04-25T03:55:54;16.73;;;8.90;;
10811;SDS011;5458;51.496;7.334;2023-04-25T03:58:20;13.40;;;8.13;;
10811;SDS011;5458;51.496;7.334;2023-04-25T04:00:45;9.88;;;7.78;;
10811;SDS011;5458;51.496;7.334;2023-04-25T04:03:11;14.23;;;8.25;;
10811;SDS011;5458;51.496;7.334;2023-04-25T04:05:37;15.63;;;8.48;;
10811;SDS011;5458;51.496;7.334;2023-04-25T04:08:05;14.15;;;9.07;;
10811;SDS011;5458;51.496;7.334;2023-04-25T04:10:31;17.63;;;9.30;;
10811;SDS011;5458;51.496;7.334;2023-04-25T04:12:56;11.30;;;4.85;;
10811;SDS011;5458;51.496;7.334;2023-04-25T04:15:23;7.90;;;3.47;;
10811;SDS011;5458;51.496;7.334;2023-04-25T04:17:57;7.40;;;4.72;;
10811;SDS011;5458;51.496;7.334;2023-04-25T04:20:27;11.65;;;5.68;;
10811;SDS011;5458;51.496;7.334;2023-04-25T04:22:53;4.65;;;4.00;;
10811;SDS011;5458;51.496;7.334;2023-04-25T04:25:19;7.05;;;4.15;;
10811;SDS011;5458;51.496;7.334;2023-04-25T04:27:44;8.05;;;3.97;;
10811;SDS011;5458;51.496;7.334;2023-04-25T04:30:11;5.80;;;4.13;;
10811;SDS011;5458;51.496;7.334;2023-04-25T04:32:37;5.65;;;4.03;;
10811;SDS011;5458;51.496;7.334;2023-04-25T04:35:03;4.15;;;3.42;;
10811;SDS011;5458;51.496;7.334;2023-04-25T04:37:29;6.85;;;4.07;;
10811;SDS011;5458;51.496;7.334;2023-04-25T04:39:55;7.57;;;3.83;;
10811;SDS011;5458;51.496;7.334;2023-04-25T04:42:21;6.50;;;4.20;;
10811;SDS011;5458;51.496;7.334;2023-04-25T04:44:46;6.72;;;4.20;;
10811;SDS011;5458;51.496;7.334;2023-04-25T04:47:12;7.50;;;4.00;;
10811;SDS011;5458;51.496;7.334;2023-04-25T04:49:39;8.00;;;4.32;;
10811;SDS011;5458;51.496;7.334;2023-04-25T04:52:05;8.82;;;4.68;;
10811;SDS011;5458;51.496;7.334;2023-04-25T04:54:30;11.02;;;3.97;;
10811;SDS011;5458;51.496;7.334;2023-04-25T04:56:56;6.00;;;4.50;;
10811;SDS011;5458;51.496;7.334;2023-04-25T04:59:21;5.43;;;4.32;;
10811;SDS011;5458;51.496;7.334;2023-04-25T05:01:47;9.10;;;4.65;;
10811;SDS011;5458;51.496;7.334;2023-04-25T05:04:12;8.02;;;4.38;;
10811;SDS011;5458;51.496;7.334;2023-04-25T05:06:38;9.57;;;4.38;;
10811;SDS011;5458;51.496;7.334;2023-04-25T05:09:04;9.68;;;4.10;;
10811;SDS011;5458;51.496;7.334;2023-04-25T05:11:29;7.28;;;4.35;;
10811;SDS011;5458;51.496;7.334;2023-04-25T05:13:55;6.57;;;4.68;;
10811;SDS011;5458;51.496;7.334;2023-04-25T05:16:21;6.60;;;4.30;;
10811;SDS011;5458;51.496;7.334;2023-04-25T05:18:46;10.48;;;4.85;;
10811;SDS011;5458;51.496;7.334;2023-04-25T05:21:12;8.70;;;4.13;;
10811;SDS011;5458;51.496;7.334;2023-04-25T05:23:38;7.57;;;4.35;;
10811;SDS011;5458;51.496;7.334;2023-04-25T05:26:03;8.27;;;4.40;;
10811;SDS011;5458;51.496;7.334;2023-04-25T05:28:29;7.85;;;4.25;;
10811;SDS011;5458;51.496;7.334;2023-04-25T05:30:55;7.82;;;4.35;;
10811;SDS011;5458;51.496;7.334;2023-04-25T05:33:20;6.65;;;5.20;;
10811;SDS011;5458;51.496;7.334;2023-04-25T05:35:46;6.60;;;4.07;;
10811;SDS011;5458;51.496;7.334;2023-04-25T05:38:12;8.25;;;4.38;;
10811;SDS011;5458;51.496;7.334;2023-04-25T05:40:37;8.02;;;4.03;;
10811;SDS011;5458;51.496;7.334;2023-04-25T05:43:03;9.70;;;4.82;;
10811;SDS011;5458;51.496;7.334;2023-04-25T05:45:29;9.00;;;6.22;;
10811;SDS011;5458;51.496;7.334;2023-04-25T05:47:54;11.27;;;6.18;;
10811;SDS011;5458;51.496;7.334;2023-04-25T05:50:20;11.38;;;7.35;;
10811;SDS011;5458;51.496;7.334;2023-04-25T05:52:46;12.90;;;7.32;;
10811;SDS011;5458;51.496;7.334;2023-04-25T05:55:11;9.15;;;6.65;;
10811;SDS011;5458;51.496;7.334;2023-04-25T05:57:37;11.60;;;7.97;;
10811;SDS011;5458;51.496;7.334;2023-04-25T06:00:06;11.15;;;7.15;;
10811;SDS011;5458;51.496;7.334;2023-04-25T06:02:34;11.40;;;7.45;;
10811;SDS011;5458;51.496;7.334;2023-04-25T06:04:59;12.90;;;8.25;;
10811;SDS011;5458;51.496;7.334;2023-04-25T06:07:28;16.73;;;8.27;;
10811;SDS011;5458;51.496;7.334;2023-04-25T06:09:55;15.57;;;7.50;;
10811;SDS011;5458;51.496;7.334;2023-04-25T06:12:20;11.63;;;7.45;;
10811;SDS011;5458;51.496;7.334;2023-04-25T06:14:46;15.93;;;8.88;;
10811;SDS011;5458;51.496;7.334;2023-04-25T06:17:11;12.32;;;7.65;;
10811;SDS011;5458;51.496;7.334;2023-04-25T06:19:37;11.57;;;7.05;;
10811;SDS011;5458;51.496;7.334;2023-04-25T06:22:02;14.05;;;7.13;;
10811;SDS011;5458;51.496;7.334;2023-04-25T06:24:28;14.00;;;8.05;;
10811;SDS011;5458;51.496;7.334;2023-04-25T06:26:54;14.73;;;8.43;;
10811;SDS011;5458;51.496;7.334;2023-04-25T06:29:20;11.85;;;7.50;;
10811;SDS011;5458;51.496;7.334;2023-04-25T06:31:46;13.50;;;7.65;;
10811;SDS011;5458;51.496;7.334;2023-04-25T06:34:11;14.43;;;7.75;;
10811;SDS011;5458;51.496;7.334;2023-04-25T06:36:37;15.73;;;8.68;;
10811;SDS011;5458;51.496;7.334;2023-04-25T06:39:02;16.20;;;8.25;;
10811;SDS011;5458;51.496;7.334;2023-04-25T06:41:28;13.13;;;8.00;;
10811;SDS011;5458;51.496;7.334;2023-04-25T06:43:54;13.45;;;8.55;;
10811;SDS011;5458;51.496;7.334;2023-04-25T06:46:19;10.98;;;5.90;;
10811;SDS011;5458;51.496;7.334;2023-04-25T06:48:45;13.13;;;5.32;;
10811;SDS011;5458;51.496;7.334;2023-04-25T06:51:11;11.82;;;4.95;;
10811;SDS011;5458;51.496;7.334;2023-04-25T06:53:38;8.98;;;4.05;;
10811;SDS011;5458;51.496;7.334;2023-04-25T06:56:04;7.20;;;4.15;;
10811;SDS011;5458;51.496;7.334;2023-04-25T06:58:29;11.48;;;4.32;;
10811;SDS011;5458;51.496;7.334;2023-04-25T07:00:55;10.18;;;4.90;;
10811;SDS011;5458;51.496;7.334;2023-04-25T07:03:21;10.02;;;3.92;;
10811;SDS011;5458;51.496;7.334;2023-04-25T07:05:46;7.13;;;3.17;;
10811;SDS011;5458;51.496;7.334;2023-04-25T07:08:12;7.47;;;3.20;;
10811;SDS011;5458;51.496;7.334;2023-04-25T07:10:37;12.45;;;3.38;;
10811;SDS011;5458;51.496;7.334;2023-04-25T07:13:03;8.02;;;3.53;;
10811;SDS011;5458;51.496;7.334;2023-04-25T07:15:28;6.28;;;2.97;;
10811;SDS011;5458;51.496;7.334;2023-04-25T07:17:54;8.65;;;3.42;;
10811;SDS011;5458;51.496;7.334;2023-04-25T07:20:20;11.40;;;4.32;;
10811;SDS011;5458;51.496;7.334;2023-04-25T07:22:45;12.27;;;3.97;;
10811;SDS011;5458;51.496;7.334;2023-04-25T07:25:11;10.63;;;4.22;;
10811;SDS011;5458;51.496;7.334;2023-04-25T07:27:37;10.52;;;3.85;;
10811;SDS011;5458;51.496;7.334;2023-04-25T07:30:03;10.35;;;3.67;;
10811;SDS011;5458;51.496;7.334;2023-04-25T07:32:29;8.30;;;3.88;;
10811;SDS011;5458;51.496;7.334;2023-04-25T07:34:55;9.43;;;3.58;;
10811;SDS011;5458;51.496;7.334;2023-04-25T07:37:20;8.38;;;3.70;;
10811;SDS011;5458;51.496;7.334;2023-04-25T07:39:46;12.30;;;4.05;;
10811;SDS011;5458;51.496;7.334;2023-04-25T07:42:12;12.23;;;4.20;;
10811;SDS011;5458;51.496;7.334;2023-04-25T07:44:38;7.57;;;3.15;;
10811;SDS011;5458;51.496;7.334;2023-04-25T07:47:08;12.13;;;3.75;;
10811;SDS011;5458;51.496;7.334;2023-04-25T07:49:37;11.52;;;4.32;;
10811;SDS011;5458;51.496;7.334;2023-04-25T07:52:03;12.25;;;4.25;;
10811;SDS011;5458;51.496;7.334;2023-04-25T07:54:33;9.88;;;4.00;;
10811;SDS011;5458;51.496;7.334;2023-04-25T07:56:58;7.18;;;3.53;;
10811;SDS011;5458;51.496;7.334;2023-04-25T07:59:24;9.68;;;3.95;;
10811;SDS011;5458;51.496;7.334;2023-04-25T08:01:50;7.13;;;3.28;;
10811;SDS011;5458;51.496;7.334;2023-04-25T08:04:16;6.20;;;3.25;;
10811;SDS011;5458;51.496;7.334;2023-04-25T08:06:42;9.13;;;3.60;;
10811;SDS011;5458;51.496;7.334;2023-04-25T08:09:08;11.90;;;3.85;;
10811;SDS011;5458;51.496;7.334;2023-04-25T08:11:36;11.02;;;4.55;;
10811;SDS011;5458;51.496;7.334;2023-04-25T08:14:02;10.57;;;3.40;;
10811;SDS011;5458;51.496;7.334;2023-04-25T08:16:28;5.60;;;2.92;;
10811;SDS011;5458;51.496;7.334;2023-04-25T08:18:53;7.53;;;2.78;;
10811;SDS011;5458;51.496;7.334;2023-04-25T08:21:19;11.63;;;3.30;;
10811;SDS011;5458;51.496;7.334;2023-04-25T08:23:45;9.10;;;3.00;;
10811;SDS011;5458;51.496;7.334;2023-04-25T08:26:11;7.47;;;3.13;;
10811;SDS011;5458;51.496;7.334;2023-04-25T08:28:36;6.68;;;2.47;;
10811;SDS011;5458;51.496;7.334;2023-04-25T08:31:02;6.78;;;2.80;;
10811;SDS011;5458;51.496;7.334;2023-04-25T08:33:28;7.40;;;2.97;;
10811;SDS011;5458;51.496;7.334;2023-04-25T08:35:54;5.95;;;2.83;;
10811;SDS011;5458;51.496;7.334;2023-04-25T08:38:19;8.25;;;2.58;;
10811;SDS011;5458;51.496;7.334;2023-04-25T08:40:46;4.70;;;2.33;;
10811;SDS011;5458;51.496;7.334;2023-04-25T08:43:18;5.15;;;2.20;;
10811;SDS011;5458;51.496;7.334;2023-04-25T08:45:44;6.72;;;2.42;;
10811;SDS011;5458;51.496;7.334;2023-04-25T08:48:11;5.38;;;1.98;;
10811;SDS011;5458;51.496;7.334;2023-04-25T08:50:59;6.13;;;2.13;;
10811;SDS011;5458;51.496;7.334;2023-04-25T08:53:26;5.32;;;1.90;;
10811;SDS011;5458;51.496;7.334;2023-04-25T08:55:54;7.28;;;2.58;;
10811;SDS011;5458;51.496;7.334;2023-04-25T08:58:20;6.00;;;2.30;;
10811;SDS011;5458;51.496;7.334;2023-04-25T09:00:46;6.18;;;2.08;;
10811;SDS011;5458;51.496;7.334;2023-04-25T09:03:13;8.57;;;2.50;;
10811;SDS011;5458;51.496;7.334;2023-04-25T09:05:40;4.30;;;1.90;;
10811;SDS011;5458;51.496;7.334;2023-04-25T09:08:06;5.38;;;2.03;;
10811;SDS011;5458;51.496;7.334;2023-04-25T09:10:32;6.10;;;2.13;;
10811;SDS011;5458;51.496;7.334;2023-04-25T09:13:08;3.83;;;1.92;;
10811;SDS011;5458;51.496;7.334;2023-04-25T09:15:49;5.90;;;1.80;;
10811;SDS011;5458;51.496;7.334;2023-04-25T09:18:25;5.60;;;1.90;;
10811;SDS011;5458;51.496;7.334;2023-04-25T09:20:55;5.28;;;1.95;;
10811;SDS011;5458;51.496;7.334;2023-04-25T09:23:29;3.97;;;1.70;;
10811;SDS011;5458;51.496;7.334;2023-04-25T09:25:54;4.45;;;2.40;;
10811;SDS011;5458;51.496;7.334;2023-04-25T09:28:23;6.13;;;2.33;;
10811;SDS011;5458;51.496;7.334;2023-04-25T09:30:54;6.30;;;1.95;;
10811;SDS011;5458;51.496;7.334;2023-04-25T09:33:22;7.68;;;2.25;;
10811;SDS011;5458;51.496;7.334;2023-04-25T09:36:05;6.93;;;1.75;;
10811;SDS011;5458;51.496;7.334;2023-04-25T09:38:39;5.05;;;2.00;;
10811;SDS011;5458;51.496;7.334;2023-04-25T09:41:07;6.88;;;2.42;;
10811;SDS011;5458;51.496;7.334;2023-04-25T09:43:33;5.03;;;2.42;;
10811;SDS011;5458;51.496;7.334;2023-04-25T09:46:00;6.13;;;2.03;;
10811;SDS011;5458;51.496;7.334;2023-04-25T09:48:26;3.83;;;1.75;;
10811;SDS011;5458;51.496;7.334;2023-04-25T09:51:11;6.10;;;2.58;;
10811;SDS011;5458;51.496;7.334;2023-04-25T09:53:45;5.28;;;2.22;;
10811;SDS011;5458;51.496;7.334;2023-04-25T09:56:12;5.25;;;2.25;;
10811;SDS011;5458;51.496;7.334;2023-04-25T09:58:39;3.40;;;1.60;;
10811;SDS011;5458;51.496;7.334;2023-04-25T10:01:06;4.05;;;1.90;;
10811;SDS011;5458;51.496;7.334;2023-04-25T10:03:33;4.28;;;1.40;;
10811;SDS011;5458;51.496;7.334;2023-04-25T10:06:00;5.10;;;1.50;;
10811;SDS011;5458;51.496;7.334;2023-04-25T10:08:31;3.65;;;1.60;;
10811;SDS011;5458;51.496;7.334;2023-04-25T10:11:00;4.90;;;1.50;;
10811;SDS011;5458;51.496;7.334;2023-04-25T10:13:27;4.88;;;1.75;;
10811;SDS011;5458;51.496;7.334;2023-04-25T10:15:53;5.20;;;1.60;;
10811;SDS011;5458;51.496;7.334;2023-04-25T10:18:19;3.83;;;1.70;;
10811;SDS011;5458;51.496;7.334;2023-04-25T10:20:46;4.13;;;1.88;;
10811;SDS011;5458;51.496;7.334;2023-04-25T10:23:14;8.50;;;1.83;;
10811;SDS011;5458;51.496;7.334;2023-04-25T10:25:41;2.42;;;1.50;;
10811;SDS011;5458;51.496;7.334;2023-04-25T10:28:07;3.10;;;1.50;;
10811;SDS011;5458;51.496;7.334;2023-04-25T10:30:33;4.35;;;1.50;;
10811;SDS011;5458;51.496;7.334;2023-04-25T10:32:59;3.72;;;1.55;;
10811;SDS011;5458;51.496;7.334;2023-04-25T10:40:31;6.07;;;1.95;;
10811;SDS011;5458;51.496;7.334;2023-04-25T10:43:33;4.85;;;1.80;;
10811;SDS011;5458;51.496;7.334;2023-04-25T10:48:49;3.55;;;1.73;;
10811;SDS011;5458;51.496;7.334;2023-04-25T10:51:17;4.70;;;1.73;;
10811;SDS011;5458;51.496;7.334;2023-04-25T10:54:03;4.45;;;1.75;;
10811;SDS011;5458;51.496;7.334;2023-04-25T10:59:04;7.03;;;1.88;;
10811;SDS011;5458;51.496;7.334;2023-04-25T11:01:37;4.85;;;2.00;;
10811;SDS011;5458;51.496;7.334;2023-04-25T11:04:04;5.78;;;1.98;;
10811;SDS011;5458;51.496;7.334;2023-04-25T11:09:17;5.35;;;2.25;;
10811;SDS011;5458;51.496;7.334;2023-04-25T11:11:42;8.07;;;2.30;;
10811;SDS011;5458;51.496;7.334;2023-04-25T11:14:19;3.92;;;1.80;;
10811;SDS011;5458;51.496;7.334;2023-04-25T11:16:45;5.97;;;2.20;;
10811;SDS011;5458;51.496;7.334;2023-04-25T11:19:11;6.03;;;1.92;;
10811;SDS011;5458;51.496;7.334;2023-04-25T11:21:36;5.30;;;2.33;;
10811;SDS011;5458;51.496;7.334;2023-04-25T11:24:02;3.33;;;2.10;;
10811;SDS011;5458;51.496;7.334;2023-04-25T11:26:28;3.95;;;1.95;;
10811;SDS011;5458;51.496;7.334;2023-04-25T11:28:58;5.45;;;1.90;;
10811;SDS011;5458;51.496;7.334;2023-04-25T11:31:28;3.65;;;1.90;;
10811;SDS011;5458;51.496;7.334;2023-04-25T11:33:56;3.70;;;2.05;;
10811;SDS011;5458;51.496;7.334;2023-04-25T11:36:23;4.07;;;1.60;;
10811;SDS011;5458;51.496;7.334;2023-04-25T11:38:50;4.68;;;2.25;;
10811;SDS011;5458;51.496;7.334;2023-04-25T11:41:17;3.92;;;1.88;;
10811;SDS011;5458;51.496;7.334;2023-04-25T11:43:43;3.08;;;1.65;;
10811;SDS011;5458;51.496;7.334;2023-04-25T11:46:09;4.03;;;1.73;;
10811;SDS011;5458;51.496;7.334;2023-04-25T11:48:41;3.72;;;1.45;;
10811;SDS011;5458;51.496;7.334;2023-04-25T11:51:07;6.40;;;1.80;;
10811;SDS011;5458;51.496;7.334;2023-04-25T11:53:33;2.47;;;1.50;;
10811;SDS011;5458;51.496;7.334;2023-04-25T11:56:00;9.40;;;2.50;;
10811;SDS011;5458;51.496;7.334;2023-04-25T11:58:26;5.32;;;1.80;;
10811;SDS011;5458;51.496;7.334;2023-04-25T12:00:52;1.70;;;1.40;;
10811;SDS011;5458;51.496;7.334;2023-04-25T12:03:18;2.97;;;1.33;;
10811;SDS011;5458;51.496;7.334;2023-04-25T12:05:44;1.42;;;0.93;;
10811;SDS011;5458;51.496;7.334;2023-04-25T12:08:13;2.55;;;1.38;;
10811;SDS011;5458;51.496;7.334;2023-04-25T12:10:42;4.55;;;1.50;;
10811;SDS011;5458;51.496;7.334;2023-04-25T12:13:25;3.80;;;1.50;;
10811;SDS011;5458;51.496;7.334;2023-04-25T12:15:55;2.45;;;1.40;;
10811;SDS011;5458;51.496;7.334;2023-04-25T12:18:23;1.20;;;1.10;;
10811;SDS011;5458;51.496;7.334;2023-04-25T12:20:52;2.28;;;1.00;;
10811;SDS011;5458;51.496;7.334;2023-04-25T12:23:24;4.80;;;1.13;;
10811;SDS011;5458;51.496;7.334;2023-04-25T12:25:51;2.35;;;1.50;;
10811;SDS011;5458;51.496;7.334;2023-04-25T12:33:18;1.52;;;1.25;;
10811;SDS011;5458;51.496;7.334;2023-04-25T12:35:44;2.67;;;1.23;;
10811;SDS011;5458;51.496;7.334;2023-04-25T12:38:09;2.38;;;1.20;;
10811;SDS011;5458;51.496;7.334;2023-04-25T12:40:35;2.47;;;1.20;;
10811;SDS011;5458;51.496;7.334;2023-04-25T12:43:01;2.45;;;1.10;;
10811;SDS011;5458;51.496;7.334;2023-04-25T12:45:27;4.15;;;1.67;;
10811;SDS011;5458;51.496;7.334;2023-04-25T12:47:52;2.08;;;1.23;;
10811;SDS011;5458;51.496;7.334;2023-04-25T12:50:18;3.58;;;1.90;;
10811;SDS011;5458;51.496;7.334;2023-04-25T12:52:43;1.40;;;1.30;;
10811;SDS011;5458;51.496;7.334;2023-04-25T12:55:09;5.15;;;1.92;;
10811;SDS011;5458;51.496;7.334;2023-04-25T12:57:35;4.68;;;1.65;;
10811;SDS011;5458;51.496;7.334;2023-04-25T13:00:00;3.45;;;1.33;;
10811;SDS011;5458;51.496;7.334;2023-04-25T13:05:02;3.22;;;1.25;;
10811;SDS011;5458;51.496;7.334;2023-04-25T13:07:28;3.28;;;1.27;;
10811;SDS011;5458;51.496;7.334;2023-04-25T13:09:54;3.65;;;1.30;;
10811;SDS011;5458;51.496;7.334;2023-04-25T13:12:20;1.55;;;1.08;;
10811;SDS011;5458;51.496;7.334;2023-04-25T13:14:46;4.72;;;1.13;;
10811;SDS011;5458;51.496;7.334;2023-04-25T13:17:11;3.65;;;1.20;;
10811;SDS011;5458;51.496;7.334;2023-04-25T13:19:37;3.53;;;1.20;;
10811;SDS011;5458;51.496;7.334;2023-04-25T13:22:03;2.85;;;1.17;;
10811;SDS011;5458;51.496;7.334;2023-04-25T13:24:29;3.85;;;1.10;;
10811;SDS011;5458;51.496;7.334;2023-04-25T13:26:55;4.13;;;1.15;;
10811;SDS011;5458;51.496;7.334;2023-04-25T13:29:20;4.38;;;1.38;;
10811;SDS011;5458;51.496;7.334;2023-04-25T13:31:46;3.38;;;1.40;;
10811;SDS011;5458;51.496;7.334;2023-04-25T13:34:11;3.42;;;1.33;;
10811;SDS011;5458;51.496;7.334;2023-04-25T13:36:37;3.30;;;1.30;;
10811;SDS011;5458;51.496;7.334;2023-04-25T13:39:03;4.63;;;1.50;;
10811;SDS011;5458;51.496;7.334;2023-04-25T13:41:29;3.97;;;1.80;;
10811;SDS011;5458;51.496;7.334;2023-04-25T13:43:55;1.48;;;1.30;;
10811;SDS011;5458;51.496;7.334;2023-04-25T13:46:21;3.00;;;1.83;;
10811;SDS011;5458;51.496;7.334;2023-04-25T13:48:46;5.20;;;1.60;;
10811;SDS011;5458;51.496;7.334;2023-04-25T13:51:14;2.30;;;1.35;;
10811;SDS011;5458;51.496;7.334;2023-04-25T13:53:41;4.45;;;1.60;;
10811;SDS011;5458;51.496;7.334;2023-04-25T13:56:06;2.63;;;1.20;;
10811;SDS011;5458;51.496;7.334;2023-04-25T13:58:32;2.28;;;1.30;;
10811;SDS011;5458;51.496;7.334;2023-04-25T14:00:58;4.82;;;1.45;;
10811;SDS011;5458;51.496;7.334;2023-04-25T14:03:23;4.65;;;1.95;;
10811;SDS011;5458;51.496;7.334;2023-04-25T14:05:49;5.30;;;1.60;;
10811;SDS011;5458;51.496;7.334;2023-04-25T14:08:15;4.45;;;1.52;;
10811;SDS011;5458;51.496;7.334;2023-04-25T14:10:41;9.02;;;1.38;;
10811;SDS011;5458;51.496;7.334;2023-04-25T14:13:07;3.92;;;1.40;;
10811;SDS011;5458;51.496;7.334;2023-04-25T14:15:32;5.07;;;1.70;;
10811;SDS011;5458;51.496;7.334;2023-04-25T14:17:58;2.65;;;1.63;;
10811;SDS011;5458;51.496;7.334;2023-04-25T14:20:25;3.00;;;1.50;;
10811;SDS011;5458;51.496;7.334;2023-04-25T14:22:51;3.40;;;1.48;;
10811;SDS011;5458;51.496;7.334;2023-04-25T14:25:19;5.00;;;1.73;;
10811;SDS011;5458;51.496;7.334;2023-04-25T14:27:45;4.63;;;1.63;;
10811;SDS011;5458;51.496;7.334;2023-04-25T14:30:14;3.33;;;1.50;;
10811;SDS011;5458;51.496;7.334;2023-04-25T14:32:41;6.43;;;1.77;;
10811;SDS011;5458;51.496;7.334;2023-04-25T14:35:06;2.42;;;1.20;;
10811;SDS011;5458;51.496;7.334;2023-04-25T14:37:32;4.00;;;1.55;;
10811;SDS011;5458;51.496;7.334;2023-04-25T14:39:58;2.13;;;1.33;;
10811;SDS011;5458;51.496;7.334;2023-04-25T14:42:23;3.15;;;1.13;;
10811;SDS011;5458;51.496;7.334;2023-04-25T14:44:49;2.85;;;1.40;;
10811;SDS011;5458;51.496;7.334;2023-04-25T14:47:15;2.95;;;1.45;;
10811;SDS011;5458;51.496;7.334;2023-04-25T14:49:41;2.10;;;1.13;;
10811;SDS011;5458;51.496;7.334;2023-04-25T14:52:06;1.98;;;1.10;;
10811;SDS011;5458;51.496;7.334;2023-04-25T14:54:32;2.30;;;1.40;;
10811;SDS011;5458;51.496;7.334;2023-04-25T14:56:58;1.35;;;1.10;;
10811;SDS011;5458;51.496;7.334;2023-04-25T14:59:24;3.33;;;1.27;;
10811;SDS011;5458;51.496;7.334;2023-04-25T15:01:50;1.77;;;1.20;;
10811;SDS011;5458;51.496;7.334;2023-04-25T15:04:16;2.55;;;0.80;;
10811;SDS011;5458;51.496;7.334;2023-04-25T15:06:42;1.17;;;0.88;;
10811;SDS011;5458;51.496;7.334;2023-04-25T15:09:08;3.10;;;1.13;;
10811;SDS011;5458;51.496;7.334;2023-04-25T15:11:35;2.58;;;1.30;;
10811;SDS011;5458;51.496;7.334;2023-04-25T15:14:01;4.63;;;1.30;;